createdAt,value
2022-08-16T00:04:34.494Z,95257.23
2022-08-16T00:10:21.097Z,95254.48
2022-08-16T00:18:37.857Z,95263.11
2022-08-16T00:21:26.084Z,95265.26
2022-08-16T00:27:11.995Z,95265.86
2022-08-16T00:32:51.180Z,95259.58
2022-08-16T00:35:41.369Z,95257.63
2022-08-16T00:38:40.224Z,95254.50
2022-08-16T00:44:11.812Z,95266.23
2022-08-16T00:49:56.246Z,95265.84
2022-08-16T00:55:24.259Z,95267.61
2022-08-16T01:01:01.400Z,95259.18
2022-08-16T01:06:48.955Z,95273.66
2022-08-16T01:12:12.114Z,95277.78
2022-08-16T01:15:03.206Z,95271.52
2022-08-16T01:20:41.662Z,95284.80
2022-08-16T01:23:58.711Z,95284.43
2022-08-16T01:26:34.515Z,95285.20
2022-08-16T01:32:09.289Z,95279.52
2022-08-16T01:37:45.322Z,95282.86
2022-08-16T01:43:24.428Z,95278.94
2022-08-16T01:49:02.128Z,95269.72
2022-08-16T01:54:40.872Z,95276.77
2022-08-16T02:00:20.716Z,95269.31
2022-08-16T02:03:12.626Z,95270.48
2022-08-16T02:08:49.386Z,95272.05
2022-08-16T02:14:30.975Z,95262.65
2022-08-16T02:17:23.516Z,95266.55
2022-08-16T02:25:56.588Z,95263.01
2022-08-16T02:32:02.621Z,95262.59
2022-08-16T02:34:17.640Z,95265.91
2022-08-16T02:39:55.365Z,95260.66
2022-08-16T02:42:44.695Z,95259.86
2022-08-16T02:48:28.870Z,95241.84
2022-08-16T02:53:51.473Z,95235.96
2022-08-16T02:56:41.208Z,95233.81
2022-08-16T03:02:14.759Z,95229.50
2022-08-16T03:05:05.324Z,95227.13
2022-08-16T03:10:43.539Z,95232.05
2022-08-16T03:13:39.992Z,95223.02
2022-08-16T03:16:37.635Z,95223.02
2022-08-16T03:19:15.317Z,95215.80
2022-08-16T03:22:03.693Z,95212.06
2022-08-16T03:27:35.999Z,95208.51
2022-08-16T03:33:15.849Z,95207.17
2022-08-16T03:36:30.099Z,95213.82
2022-08-16T03:41:50.586Z,95216.77
2022-08-16T03:47:22.603Z,95212.85
2022-08-16T03:53:03.115Z,95211.24
2022-08-16T03:58:37.035Z,95210.83
2022-08-16T04:04:10.948Z,95213.83
2022-08-16T04:09:50.065Z,95200.64
2022-08-16T04:15:18.478Z,95203.54
2022-08-16T04:20:56.504Z,95205.08
2022-08-16T04:26:46.752Z,95199.77
2022-08-16T04:29:44.119Z,95202.09
2022-08-16T04:35:16.865Z,95202.55
2022-08-16T04:38:10.939Z,95205.64
2022-08-16T04:43:48.223Z,95202.00
2022-08-16T04:49:22.794Z,95211.64
2022-08-16T04:55:03.301Z,95215.59
2022-08-16T05:00:47.132Z,95223.42
2022-08-16T05:03:41.754Z,95229.72
2022-08-16T05:06:42.119Z,95225.04
2022-08-16T05:09:19.244Z,95221.90
2022-08-16T05:15:01.988Z,95221.73
2022-08-16T05:17:58.443Z,95228.02
2022-08-16T05:21:01.291Z,95224.63
2022-08-16T05:23:31.605Z,95218.38
2022-08-16T05:29:11.052Z,95212.00
2022-08-16T05:31:59.273Z,95213.29
2022-08-16T05:37:39.725Z,95217.88
2022-08-16T05:43:22.952Z,95225.66
2022-08-16T05:46:28.587Z,95231.39
2022-08-16T05:51:50.194Z,95225.72
2022-08-16T05:54:43.038Z,95228.39
2022-08-16T06:00:22.629Z,95228.24
2022-08-16T06:06:00.821Z,95234.93
2022-08-16T06:08:49.644Z,95226.08
2022-08-16T06:11:43.076Z,95223.45
2022-08-16T06:14:33.478Z,95223.11
2022-08-16T06:17:23.965Z,95224.80
2022-08-16T06:20:24.051Z,95230.00
2022-08-16T06:25:59.714Z,95229.37
2022-08-16T06:28:49.411Z,95234.83
2022-08-16T06:31:46.929Z,95223.59
2022-08-16T06:37:16.889Z,95233.12
2022-08-16T06:42:57.599Z,95233.55
2022-08-16T06:49:33.290Z,95234.80
2022-08-16T06:55:22.288Z,95241.30
2022-08-16T06:58:21.763Z,95242.76
2022-08-16T07:04:04.725Z,95238.36
2022-08-16T07:09:51.365Z,95241.12
2022-08-16T07:15:31.534Z,95241.85
2022-08-16T07:18:24.541Z,95237.80
2022-08-16T07:24:06.154Z,95235.83
2022-08-16T07:32:29.586Z,95236.55
2022-08-16T07:38:17.309Z,95241.81
2022-08-16T07:44:03.687Z,95255.03
2022-08-16T07:49:38.863Z,95261.03
2022-08-16T07:55:22.977Z,95256.52
2022-08-16T07:58:18.311Z,95261.14
2022-08-16T08:01:10.658Z,95263.36
2022-08-16T08:06:37.204Z,95255.28
2022-08-16T08:12:32.286Z,95270.20
2022-08-16T08:17:44.586Z,95264.36
2022-08-16T08:23:15.227Z,95267.31
2022-08-16T08:28:48.918Z,95268.42
2022-08-16T08:34:25.013Z,95271.77
2022-08-16T08:40:03.646Z,95263.70
2022-08-16T08:45:49.193Z,95270.38
2022-08-16T08:51:16.667Z,95269.63
2022-08-16T08:56:55.413Z,95281.97
2022-08-16T09:02:34.562Z,95275.52
2022-08-16T09:11:02.912Z,95270.56
2022-08-16T09:13:51.481Z,95276.04
2022-08-16T09:17:03.247Z,95278.81
2022-08-16T09:22:19.804Z,95269.28
2022-08-16T09:27:57.603Z,95261.18
2022-08-16T09:30:43.903Z,95265.47
2022-08-16T09:36:32.686Z,95254.19
2022-08-16T09:41:59.583Z,95259.45
2022-08-16T09:47:57.480Z,95257.84
2022-08-16T09:53:25.730Z,95263.68
2022-08-16T09:59:07.891Z,95261.06
2022-08-16T10:04:54.506Z,95264.20
2022-08-16T10:07:44.054Z,95261.59
2022-08-16T10:13:16.192Z,95255.46
2022-08-16T10:16:06.417Z,95258.81
2022-08-16T10:19:06.213Z,95252.48
2022-08-16T10:24:32.572Z,95254.05
2022-08-16T10:30:07.034Z,95257.91
2022-08-16T10:32:50.704Z,95254.47
2022-08-16T10:38:26.985Z,95256.83
2022-08-16T10:44:04.501Z,95257.70
2022-08-16T10:46:54.851Z,95250.30
2022-08-16T10:58:16.906Z,95257.22
2022-08-16T11:07:06.620Z,95253.52
2022-08-16T11:12:16.207Z,95249.96
2022-08-16T11:23:30.928Z,95245.05
2022-08-16T11:29:16.005Z,95246.78
2022-08-16T11:31:54.376Z,95240.73
2022-08-16T11:38:04.594Z,95242.65
2022-08-16T11:40:19.493Z,95239.84
2022-08-16T11:46:42.819Z,95237.50
2022-08-16T11:51:36.306Z,95230.48
2022-08-16T11:54:36.360Z,95230.88
2022-08-16T12:00:33.918Z,95216.42
2022-08-16T12:03:11.432Z,95211.77
2022-08-16T12:06:07.745Z,95210.48
2022-08-16T12:09:02.162Z,95211.59
2022-08-16T12:14:42.127Z,95202.91
2022-08-16T12:17:34.725Z,95211.50
2022-08-16T12:23:07.773Z,95199.34
2022-08-16T12:28:56.325Z,95203.75
2022-08-16T12:34:50.755Z,95202.27
2022-08-16T12:37:33.016Z,95197.39
2022-08-16T12:43:14.344Z,95193.48
2022-08-16T12:46:04.544Z,95192.08
2022-08-16T12:51:59.507Z,95188.09
2022-08-16T12:54:37.439Z,95187.48
2022-08-16T12:57:36.765Z,95185.58
2022-08-16T13:00:26.352Z,95182.79
2022-08-16T13:03:21.624Z,95185.41
2022-08-16T13:09:00.664Z,95181.71
2022-08-16T13:14:42.755Z,95176.32
2022-08-16T13:17:32.925Z,95181.27
2022-08-16T13:23:13.830Z,95178.17
2022-08-16T13:28:51.574Z,95166.20
2022-08-16T13:31:41.064Z,95161.03
2022-08-16T13:37:21.828Z,95169.07
2022-08-16T13:43:04.852Z,95160.37
2022-08-16T13:51:32.850Z,95150.88
2022-08-16T13:57:11.740Z,95147.55
2022-08-16T14:02:50.749Z,95153.32
2022-08-16T14:08:27.326Z,95144.30
2022-08-16T14:14:02.669Z,95145.36
2022-08-16T14:19:44.902Z,95138.93
2022-08-16T14:25:23.436Z,95134.59
2022-08-16T14:28:11.840Z,95131.28
2022-08-16T14:31:01.234Z,95136.73
2022-08-16T14:33:49.554Z,95127.44
2022-08-16T14:39:26.448Z,95135.97
2022-08-16T14:45:04.410Z,95132.52
2022-08-16T14:50:39.934Z,95128.62
2022-08-16T14:53:32.701Z,95125.98
2022-08-16T14:56:39.005Z,95122.83
2022-08-16T15:01:58.670Z,95116.94
2022-08-16T15:07:26.220Z,95120.92
2022-08-16T15:13:06.053Z,95114.79
2022-08-16T15:16:01.926Z,95116.48
2022-08-16T15:18:46.725Z,95124.31
2022-08-16T15:21:36.300Z,95120.59
2022-08-16T15:24:30.820Z,95124.07
2022-08-16T15:27:21.037Z,95124.34
2022-08-16T15:33:02.375Z,95112.28
2022-08-16T15:35:52.546Z,95114.48
2022-08-16T15:41:55.302Z,95108.63
2022-08-16T15:47:33.979Z,95103.02
2022-08-16T15:56:19.910Z,95105.63
2022-08-16T15:59:08.731Z,95108.67
2022-08-16T16:01:58.260Z,95112.21
2022-08-16T16:04:48.218Z,95110.59
2022-08-16T16:13:14.784Z,95113.11
2022-08-16T16:19:03.583Z,95102.84
2022-08-16T16:21:53.963Z,95103.93
2022-08-16T16:24:45.242Z,95111.71
2022-08-16T16:30:32.977Z,95106.69
2022-08-16T16:35:56.872Z,95100.66
2022-08-16T16:41:32.674Z,95100.58
2022-08-16T16:44:33.918Z,95102.88
2022-08-16T16:47:14.642Z,95100.73
2022-08-16T16:52:45.415Z,95087.73
2022-08-16T16:58:36.980Z,95085.49
2022-08-16T17:04:13.340Z,95086.07
2022-08-16T17:09:50.219Z,95080.20
2022-08-16T17:15:18.799Z,95078.73
2022-08-16T17:20:51.384Z,95078.88
2022-08-16T17:26:19.832Z,95076.34
2022-08-16T17:31:52.381Z,95073.73
2022-08-16T17:37:34.068Z,95080.21
2022-08-16T17:43:01.775Z,95091.13
2022-08-16T17:48:37.454Z,95086.23
2022-08-16T17:54:06.683Z,95093.52
2022-08-16T17:59:41.290Z,95095.22
2022-08-16T18:02:44.040Z,95100.21
2022-08-16T18:08:10.159Z,95102.02
2022-08-16T18:13:59.375Z,95102.59
2022-08-16T18:16:49.216Z,95110.60
2022-08-16T18:19:37.541Z,95115.78
2022-08-16T18:22:30.381Z,95111.09
2022-08-16T18:28:06.734Z,95114.69
2022-08-16T18:36:33.219Z,95113.50
2022-08-16T18:39:22.049Z,95113.24
2022-08-16T18:42:13.446Z,95113.02
2022-08-16T18:45:04.405Z,95113.38
2022-08-16T18:51:03.965Z,95122.20
2022-08-16T18:56:14.075Z,95120.75
2022-08-16T18:59:04.386Z,95128.50
2022-08-16T19:02:00.274Z,95128.75
2022-08-16T19:10:33.763Z,95127.77
2022-08-16T19:16:12.196Z,95130.17
2022-08-16T19:21:44.971Z,95128.25
2022-08-16T19:27:23.609Z,95126.61
2022-08-16T19:30:13.123Z,95124.34
2022-08-16T19:38:36.427Z,95127.12
2022-08-16T19:44:27.307Z,95127.20
2022-08-16T19:47:16.097Z,95133.20
2022-08-16T19:50:08.143Z,95128.88
2022-08-16T19:55:42.650Z,95135.34
2022-08-16T19:58:31.408Z,95133.20
2022-08-16T20:01:21.976Z,95133.20
2022-08-16T20:07:02.451Z,95115.97
2022-08-16T20:10:07.564Z,95115.97
2022-08-16T20:13:02.524Z,95136.31
2022-08-16T20:18:34.637Z,95145.63
2022-08-16T20:24:32.467Z,95156.41
2022-08-16T20:29:45.317Z,95150.38
2022-08-16T20:35:25.347Z,95148.12
2022-08-16T20:38:13.812Z,95156.97
2022-08-16T20:43:51.543Z,95153.02
2022-08-16T20:49:24.450Z,95153.80
2022-08-16T20:55:03.178Z,95155.64
2022-08-16T20:57:52.457Z,95160.78
2022-08-16T21:03:32.312Z,95152.40
2022-08-16T21:09:03.183Z,95161.50
2022-08-16T21:14:33.848Z,95169.46
2022-08-16T21:17:22.449Z,95172.11
2022-08-16T21:22:59.565Z,95170.58
2022-08-16T21:28:58.084Z,95170.31
2022-08-16T21:34:37.498Z,95181.88
2022-08-16T21:37:26.187Z,95169.92
2022-08-16T21:40:14.913Z,95173.89
2022-08-16T21:43:11.806Z,95174.25
2022-08-16T21:48:49.477Z,95164.58
2022-08-16T21:51:39.332Z,95167.77
2022-08-16T21:54:28.190Z,95163.98
2022-08-16T22:00:06.186Z,95177.81
2022-08-16T22:08:39.492Z,95171.08
2022-08-16T22:14:14.636Z,95163.19
2022-08-16T22:19:49.618Z,95165.01
2022-08-16T22:25:17.948Z,95172.38
2022-08-16T22:30:57.921Z,95180.81
2022-08-16T22:36:28.856Z,95187.00
2022-08-16T22:39:16.963Z,95185.58
2022-08-16T22:42:10.530Z,95185.94
2022-08-16T22:47:51.914Z,95186.60
2022-08-16T22:50:40.532Z,95182.03
2022-08-16T22:56:18.362Z,95176.04
2022-08-16T23:01:54.717Z,95169.63
2022-08-16T23:07:41.265Z,95170.51
2022-08-16T23:10:30.925Z,95164.75
2022-08-16T23:13:20.908Z,95164.46
2022-08-16T23:18:58.707Z,95161.34
2022-08-16T23:24:56.797Z,95162.98
2022-08-16T23:30:15.436Z,95152.72
2022-08-16T23:33:06.704Z,95151.41
2022-08-16T23:38:44.147Z,95124.80
2022-08-16T23:44:55.844Z,95147.16
2022-08-16T23:47:03.279Z,95156.80
2022-08-16T23:50:01.156Z,95162.41
2022-08-16T23:52:55.835Z,95164.84
2022-08-16T23:58:32.047Z,95148.63
